createdAt,value
2023-02-24T00:02:17.983Z,-14.45
2023-02-24T00:04:52.206Z,-14.53
2023-02-24T00:07:21.477Z,-14.60
2023-02-24T00:09:50.379Z,-14.70
2023-02-24T00:12:21.290Z,-14.81
2023-02-24T00:14:50.145Z,-14.80
2023-02-24T00:17:19.057Z,-14.83
2023-02-24T00:19:47.909Z,-14.79
2023-02-24T00:22:16.741Z,-14.83
2023-02-24T00:24:45.535Z,-14.76
2023-02-24T00:27:14.421Z,-14.80
2023-02-24T00:29:46.418Z,-14.79
2023-02-24T00:32:15.493Z,-14.71
2023-02-24T00:34:44.686Z,-14.67
2023-02-24T00:37:16.075Z,-14.58
2023-02-24T00:39:46.589Z,-14.50
2023-02-24T00:42:15.565Z,-14.42
2023-02-24T00:44:48.585Z,-14.29
2023-02-24T00:47:18.206Z,-14.16
2023-02-24T00:49:47.284Z,-14.04
2023-02-24T00:52:19.642Z,-13.62
2023-02-24T00:54:50.642Z,-12.59
2023-02-24T00:57:21.789Z,-11.60
2023-02-24T00:59:54.610Z,-10.63
2023-02-24T01:02:24.497Z,-9.77
2023-02-24T01:04:55.114Z,-9.01
2023-02-24T01:07:23.936Z,-8.23
2023-02-24T01:09:52.756Z,-7.55
2023-02-24T01:12:50.025Z,-6.94
2023-02-24T01:15:22.077Z,-6.13
2023-02-24T01:17:51.131Z,-5.46
2023-02-24T01:20:20.380Z,-4.82
2023-02-24T01:22:51.692Z,-4.38
2023-02-24T01:25:23.697Z,-4.00
2023-02-24T01:27:54.335Z,-3.46
2023-02-24T01:30:23.385Z,-2.98
2023-02-24T01:32:52.606Z,-2.31
2023-02-24T01:35:21.659Z,-1.60
2023-02-24T01:37:50.592Z,-0.91
2023-02-24T01:40:21.973Z,-0.26
2023-02-24T01:42:51.303Z,0.33
2023-02-24T01:45:27.218Z,0.91
2023-02-24T01:48:03.841Z,1.50
2023-02-24T01:50:36.578Z,1.86
2023-02-24T01:53:07.987Z,2.19
2023-02-24T01:55:50.512Z,2.58
2023-02-24T01:58:30.960Z,2.79
2023-02-24T02:01:01.076Z,3.09
2023-02-24T02:03:42.216Z,3.72
2023-02-24T02:06:14.683Z,3.98
2023-02-24T02:08:44.172Z,4.32
2023-02-24T02:11:21.215Z,4.89
2023-02-24T02:13:53.175Z,5.47
2023-02-24T02:16:42.718Z,5.77
2023-02-24T02:19:40.911Z,5.97
2023-02-24T02:22:31.988Z,5.98
2023-02-24T02:25:17.636Z,6.19
2023-02-24T02:27:48.214Z,6.38
2023-02-24T02:30:44.475Z,6.62
2023-02-24T02:33:41.181Z,6.86
2023-02-24T02:36:18.801Z,7.46
2023-02-24T02:39:12.665Z,7.72
2023-02-24T02:42:02.721Z,8.21
2023-02-24T02:44:48.173Z,8.55
2023-02-24T02:47:35.577Z,8.83
2023-02-24T02:50:13.629Z,8.70
2023-02-24T02:52:54.876Z,8.99
2023-02-24T02:56:14.157Z,9.51
2023-02-24T02:58:48.860Z,9.80
2023-02-24T03:01:29.037Z,10.01
2023-02-24T03:04:05.313Z,10.69
2023-02-24T03:06:57.883Z,11.20
2023-02-24T03:09:33.271Z,11.05
2023-02-24T03:12:09.307Z,10.93
2023-02-24T03:14:51.674Z,11.08
2023-02-24T03:17:25.131Z,11.42
2023-02-24T03:20:16.730Z,11.84
2023-02-24T03:23:11.782Z,12.29
2023-02-24T03:25:47.440Z,12.45
2023-02-24T03:28:29.771Z,12.42
2023-02-24T03:31:11.663Z,12.67
2023-02-24T03:34:04.345Z,13.02
2023-02-24T03:36:33.848Z,13.27
2023-02-24T03:39:05.193Z,13.52
2023-02-24T03:41:54.869Z,13.77
2023-02-24T03:44:25.850Z,13.71
2023-02-24T03:46:56.536Z,13.64
2023-02-24T03:49:25.932Z,13.74
2023-02-24T03:52:22.063Z,13.92
2023-02-24T03:55:02.371Z,13.98
2023-02-24T03:57:55.808Z,13.99
2023-02-24T04:01:11.430Z,14.19
2023-02-24T04:04:01.471Z,14.39
2023-02-24T04:06:46.235Z,14.39
2023-02-24T04:09:38.400Z,14.70
2023-02-24T04:12:36.077Z,14.98
2023-02-24T04:15:25.422Z,15.33
2023-02-24T04:18:01.832Z,15.60
2023-02-24T04:20:37.839Z,15.79
2023-02-24T04:23:12.174Z,15.85
2023-02-24T04:25:45.445Z,15.46
2023-02-24T04:28:19.476Z,15.51
2023-02-24T04:30:52.733Z,15.48
2023-02-24T04:33:22.193Z,15.41
2023-02-24T04:35:53.973Z,15.40
2023-02-24T04:38:24.333Z,15.89
2023-02-24T04:40:53.433Z,16.07
2023-02-24T04:43:22.229Z,16.37
2023-02-24T04:45:52.246Z,16.34
2023-02-24T04:48:21.068Z,15.98
2023-02-24T04:50:55.620Z,16.05
2023-02-24T04:53:27.718Z,16.29
2023-02-24T04:55:57.260Z,16.31
2023-02-24T04:58:28.710Z,16.49
2023-02-24T05:00:58.516Z,16.68
2023-02-24T05:03:29.028Z,16.98
2023-02-24T05:06:03.367Z,17.05
2023-02-24T05:08:32.726Z,17.07
2023-02-24T05:11:04.542Z,17.28
2023-02-24T05:13:34.436Z,16.85
2023-02-24T05:16:10.171Z,16.34
2023-02-24T05:18:39.270Z,16.09
2023-02-24T05:21:28.803Z,15.85
2023-02-24T05:24:07.310Z,15.96
2023-02-24T05:26:38.099Z,16.30
2023-02-24T05:29:08.616Z,16.51
2023-02-24T05:31:38.252Z,16.59
2023-02-24T05:34:09.168Z,16.83
2023-02-24T05:36:41.065Z,16.62
2023-02-24T05:39:15.233Z,16.38
2023-02-24T05:41:44.276Z,16.72
2023-02-24T05:44:16.405Z,16.87
2023-02-24T05:46:47.248Z,16.87
2023-02-24T05:49:27.550Z,17.24
2023-02-24T05:51:58.372Z,17.66
2023-02-24T05:54:33.359Z,17.23
2023-02-24T05:57:05.901Z,16.78
2023-02-24T05:59:35.333Z,16.83
2023-02-24T06:02:12.295Z,16.96
2023-02-24T06:04:54.477Z,16.76
2023-02-24T06:07:29.285Z,16.21
2023-02-24T06:10:00.771Z,15.85
2023-02-24T06:12:34.501Z,15.33
2023-02-24T06:15:08.218Z,14.87
2023-02-24T06:17:37.127Z,15.12
2023-02-24T06:20:15.719Z,15.53
2023-02-24T06:22:44.690Z,15.94
2023-02-24T06:25:13.824Z,15.76
2023-02-24T06:27:43.821Z,15.80
2023-02-24T06:30:13.521Z,15.58
2023-02-24T06:32:42.483Z,14.95
2023-02-24T06:35:13.405Z,14.80
2023-02-24T06:37:42.469Z,14.60
2023-02-24T06:40:20.840Z,14.29
2023-02-24T06:42:54.588Z,14.75
2023-02-24T06:45:24.991Z,14.92
2023-02-24T06:47:53.980Z,14.92
2023-02-24T06:50:23.944Z,14.52
2023-02-24T06:52:56.238Z,14.19
2023-02-24T06:55:28.271Z,14.39
2023-02-24T06:57:59.417Z,14.93
2023-02-24T07:00:39.603Z,15.46
2023-02-24T07:03:17.385Z,15.87
2023-02-24T07:05:51.187Z,15.99
2023-02-24T07:08:23.385Z,15.41
2023-02-24T07:10:58.635Z,14.25
2023-02-24T07:13:31.706Z,13.77
2023-02-24T07:16:07.570Z,13.55
2023-02-24T07:18:37.753Z,13.17
2023-02-24T07:21:11.997Z,12.90
2023-02-24T07:23:42.389Z,12.86
2023-02-24T07:26:17.617Z,12.97
2023-02-24T07:28:48.646Z,12.65
2023-02-24T07:31:21.648Z,12.89
2023-02-24T07:33:56.243Z,13.43
2023-02-24T07:36:30.638Z,13.82
2023-02-24T07:39:00.242Z,13.79
2023-02-24T07:41:31.273Z,13.69
2023-02-24T07:44:03.824Z,13.39
2023-02-24T07:46:32.998Z,13.18
2023-02-24T07:49:03.679Z,13.42
2023-02-24T07:51:32.484Z,14.01
2023-02-24T07:54:02.700Z,13.43
2023-02-24T07:56:33.521Z,12.61
2023-02-24T07:59:08.600Z,12.79
2023-02-24T08:01:50.297Z,12.87
2023-02-24T08:04:21.632Z,12.83
2023-02-24T08:06:56.694Z,11.71
2023-02-24T08:09:46.565Z,11.37
2023-02-24T08:12:18.636Z,11.32
2023-02-24T08:14:52.607Z,11.41
2023-02-24T08:17:24.622Z,11.30
2023-02-24T08:20:15.397Z,11.03
2023-02-24T08:22:47.394Z,10.83
2023-02-24T08:25:19.734Z,10.69
2023-02-24T08:28:12.148Z,10.73
2023-02-24T08:30:46.404Z,10.87
2023-02-24T08:33:22.613Z,10.72
2023-02-24T08:35:58.542Z,10.78
2023-02-24T08:38:40.484Z,10.74
2023-02-24T08:41:18.686Z,10.30
2023-02-24T08:43:49.530Z,9.61
2023-02-24T08:46:26.725Z,9.57
2023-02-24T08:49:03.493Z,9.38
2023-02-24T08:51:38.009Z,9.08
2023-02-24T08:54:16.202Z,8.92
2023-02-24T08:56:49.645Z,8.67
2023-02-24T08:59:37.538Z,8.32
2023-02-24T09:02:25.178Z,8.10
2023-02-24T09:05:05.841Z,8.02
2023-02-24T09:07:41.414Z,7.76
2023-02-24T09:10:18.392Z,6.93
2023-02-24T09:12:49.640Z,6.07
2023-02-24T09:15:18.571Z,4.43
2023-02-24T09:17:47.385Z,2.70
2023-02-24T09:20:42.538Z,1.32
2023-02-24T09:23:20.611Z,0.37
2023-02-24T09:25:54.919Z,-0.30
2023-02-24T09:28:29.794Z,-0.76
2023-02-24T09:31:05.430Z,-1.28
2023-02-24T09:33:42.197Z,-1.65
2023-02-24T09:36:30.729Z,-2.03
2023-02-24T09:39:01.265Z,-2.35
2023-02-24T09:41:57.882Z,-2.69
2023-02-24T09:44:39.854Z,-2.93
2023-02-24T09:47:31.714Z,-3.21
2023-02-24T09:50:59.055Z,-3.51
2023-02-24T09:53:20.152Z,-3.75
2023-02-24T09:56:01.145Z,-3.87
2023-02-24T09:58:56.186Z,-3.99
2023-02-24T10:01:44.407Z,-4.13
2023-02-24T10:04:21.489Z,-4.29
2023-02-24T10:07:08.823Z,-4.41
2023-02-24T10:10:32.471Z,-4.54
2023-02-24T10:13:30.827Z,-4.73
2023-02-24T10:16:12.653Z,-4.76
2023-02-24T10:19:16.997Z,-4.82
2023-02-24T10:22:28.000Z,-4.96
2023-02-24T10:25:11.920Z,-5.02
2023-02-24T10:27:53.681Z,-5.16
2023-02-24T10:30:44.216Z,-5.23
2023-02-24T10:33:30.553Z,-5.22
2023-02-24T10:36:19.810Z,-5.31
2023-02-24T10:38:51.365Z,-5.49
2023-02-24T10:41:20.866Z,-5.50
2023-02-24T10:43:59.838Z,-5.49
2023-02-24T10:46:42.446Z,-5.55
2023-02-24T10:49:17.206Z,-5.58
2023-02-24T10:51:54.079Z,-5.71
2023-02-24T10:54:45.364Z,-5.69
2023-02-24T10:57:35.211Z,-5.75
2023-02-24T11:00:31.837Z,-5.77
2023-02-24T11:03:10.916Z,-5.82
2023-02-24T11:06:06.219Z,-5.83
2023-02-24T11:08:40.177Z,-5.86
2023-02-24T11:11:54.895Z,-5.87
2023-02-24T11:14:42.331Z,-5.89
2023-02-24T11:17:27.480Z,-5.92
2023-02-24T11:20:01.836Z,-5.90
2023-02-24T11:22:36.229Z,-5.90
2023-02-24T11:25:09.483Z,-5.96
2023-02-24T11:27:43.591Z,-6.01
2023-02-24T11:30:31.488Z,-6.01
2023-02-24T11:33:09.837Z,-5.98
2023-02-24T11:35:55.445Z,-6.03
2023-02-24T11:38:35.332Z,-6.03
2023-02-24T11:41:28.021Z,-6.05
2023-02-24T11:44:28.971Z,-6.08
2023-02-24T11:47:08.051Z,-6.10
2023-02-24T11:50:05.255Z,-6.09
2023-02-24T11:52:39.407Z,-6.05
2023-02-24T11:55:28.039Z,-6.10
2023-02-24T11:58:00.327Z,-6.05
2023-02-24T12:00:34.771Z,-6.11
2023-02-24T12:03:23.908Z,-6.04
2023-02-24T12:05:57.646Z,-6.04
2023-02-24T12:08:35.517Z,-6.02
2023-02-24T12:11:24.353Z,-6.02
2023-02-24T12:14:14.922Z,-6.03
2023-02-24T12:16:49.428Z,-6.06
2023-02-24T12:19:40.403Z,-6.12
2023-02-24T12:22:16.936Z,-6.24
2023-02-24T12:24:52.192Z,-6.26
2023-02-24T12:27:45.217Z,-6.24
2023-02-24T12:30:51.795Z,-6.25
2023-02-24T12:33:44.419Z,-6.19
2023-02-24T12:37:00.600Z,-6.16
2023-02-24T12:39:50.164Z,-6.18
2023-02-24T12:42:35.398Z,-6.12
2023-02-24T12:45:33.374Z,-6.13
2023-02-24T12:48:08.012Z,-6.10
2023-02-24T12:50:52.168Z,-6.13
2023-02-24T12:53:53.395Z,-6.17
2023-02-24T12:56:41.535Z,-6.24
2023-02-24T12:59:16.324Z,-6.21
2023-02-24T13:02:06.131Z,-6.07
2023-02-24T13:05:17.480Z,-6.04
2023-02-24T13:08:24.546Z,-6.01
2023-02-24T13:11:39.004Z,-6.03
2023-02-24T13:14:35.480Z,-6.00
2023-02-24T13:17:09.795Z,-6.01
2023-02-24T13:19:40.657Z,-6.10
2023-02-24T13:22:33.508Z,-6.05
2023-02-24T13:25:18.695Z,-6.08
2023-02-24T13:28:03.409Z,-6.07
2023-02-24T13:30:45.252Z,-5.98
2023-02-24T13:33:20.130Z,-5.99
2023-02-24T13:35:52.800Z,-5.98
2023-02-24T13:38:37.621Z,-6.08
2023-02-24T13:41:25.589Z,-6.09
2023-02-24T13:44:00.424Z,-6.06
2023-02-24T13:47:00.954Z,-6.15
2023-02-24T13:49:39.729Z,-6.24
2023-02-24T13:52:38.857Z,-6.31
2023-02-24T13:55:22.508Z,-6.36
2023-02-24T13:58:29.183Z,-6.45
2023-02-24T14:01:07.981Z,-6.52
2023-02-24T14:03:43.126Z,-6.62
2023-02-24T14:06:25.721Z,-6.70
2023-02-24T14:08:58.275Z,-6.70
2023-02-24T14:11:31.812Z,-6.75
2023-02-24T14:14:01.211Z,-6.72
2023-02-24T14:16:40.584Z,-6.73
2023-02-24T14:19:17.658Z,-6.68
2023-02-24T14:21:57.027Z,-6.74
2023-02-24T14:24:29.020Z,-6.73
2023-02-24T14:27:00.203Z,-6.70
2023-02-24T14:29:43.201Z,-6.74
2023-02-24T14:32:25.065Z,-6.79
2023-02-24T14:34:55.782Z,-6.74
2023-02-24T14:37:31.000Z,-6.78
2023-02-24T14:40:04.989Z,-6.72
2023-02-24T14:42:34.030Z,-6.75
2023-02-24T14:45:03.123Z,-6.75
2023-02-24T14:47:34.064Z,-6.71
2023-02-24T14:50:05.782Z,-6.71
2023-02-24T14:53:11.224Z,-6.69
2023-02-24T14:55:43.501Z,-6.75
2023-02-24T14:58:22.871Z,-6.76
2023-02-24T15:00:57.336Z,-6.81
2023-02-24T15:03:32.872Z,-6.91
2023-02-24T15:06:07.837Z,-6.89
2023-02-24T15:08:39.401Z,-6.91
2023-02-24T15:11:23.092Z,-6.96
2023-02-24T15:13:56.554Z,-6.93
2023-02-24T15:16:44.703Z,-6.95
2023-02-24T15:19:38.507Z,-7.02
2023-02-24T15:22:26.326Z,-7.09
2023-02-24T15:25:11.218Z,-7.19
2023-02-24T15:27:52.497Z,-7.24
2023-02-24T15:30:54.609Z,-7.24
2023-02-24T15:33:35.116Z,-7.27
2023-02-24T15:36:09.731Z,-7.29
2023-02-24T15:38:43.335Z,-7.31
2023-02-24T15:41:13.874Z,-7.33
2023-02-24T15:43:47.933Z,-7.35
2023-02-24T15:46:20.061Z,-7.36
2023-02-24T15:48:51.647Z,-7.33
2023-02-24T15:51:38.825Z,-7.38
2023-02-24T15:54:13.954Z,-7.41
2023-02-24T15:56:43.714Z,-7.45
2023-02-24T15:59:17.357Z,-7.43
2023-02-24T16:01:46.893Z,-7.41
2023-02-24T16:04:16.170Z,-7.52
2023-02-24T16:06:55.108Z,-7.53
2023-02-24T16:09:27.663Z,-7.51
2023-02-24T16:11:57.368Z,-7.52
2023-02-24T16:14:26.475Z,-7.54
2023-02-24T16:16:55.759Z,-7.57
2023-02-24T16:19:24.726Z,-7.64
2023-02-24T16:21:53.876Z,-7.65
2023-02-24T16:24:22.789Z,-7.74
2023-02-24T16:26:51.694Z,-7.75
2023-02-24T16:29:20.601Z,-7.79
2023-02-24T16:31:49.688Z,-7.83
2023-02-24T16:34:18.651Z,-7.89
2023-02-24T16:36:48.190Z,-7.86
2023-02-24T16:39:17.264Z,-7.85
2023-02-24T16:41:46.162Z,-7.89
2023-02-24T16:44:14.923Z,-7.93
2023-02-24T16:46:45.487Z,-7.96
2023-02-24T16:49:20.638Z,-8.01
2023-02-24T16:51:49.536Z,-7.98
2023-02-24T16:54:20.227Z,-7.96
2023-02-24T16:56:50.498Z,-7.95
2023-02-24T16:59:19.440Z,-7.91
2023-02-24T17:01:49.344Z,-7.92
2023-02-24T17:04:18.406Z,-7.95
2023-02-24T17:06:48.504Z,-7.93
2023-02-24T17:09:18.622Z,-7.94
2023-02-24T17:11:47.451Z,-7.96
2023-02-24T17:14:21.263Z,-7.86
2023-02-24T17:16:50.151Z,-7.82
2023-02-24T17:19:19.514Z,-7.83
2023-02-24T17:21:48.317Z,-7.89
2023-02-24T17:24:20.376Z,-7.79
2023-02-24T17:26:49.476Z,-7.72
2023-02-24T17:29:18.302Z,-7.73
2023-02-24T17:31:47.566Z,-7.79
2023-02-24T17:34:16.515Z,-7.84
2023-02-24T17:36:45.379Z,-7.84
2023-02-24T17:39:14.605Z,-7.83
2023-02-24T17:41:43.389Z,-7.83
2023-02-24T17:44:12.169Z,-7.81
2023-02-24T17:46:41.111Z,-7.80
2023-02-24T17:49:10.321Z,-7.85
2023-02-24T17:51:39.123Z,-7.85
2023-02-24T17:54:09.042Z,-7.88
2023-02-24T17:56:38.020Z,-7.98
2023-02-24T17:59:36.834Z,-8.01
2023-02-24T18:02:06.818Z,-8.05
2023-02-24T18:04:36.239Z,-8.14
2023-02-24T18:07:05.169Z,-8.22
2023-02-24T18:09:34.033Z,-8.24
2023-02-24T18:12:03.233Z,-8.28
2023-02-24T18:14:32.400Z,-8.34
2023-02-24T18:17:01.549Z,-8.35
2023-02-24T18:19:31.188Z,-8.35
2023-02-24T18:22:00.015Z,-8.40
2023-02-24T18:24:29.290Z,-8.37
2023-02-24T18:26:58.294Z,-8.37
2023-02-24T18:29:27.141Z,-8.38
2023-02-24T18:31:56.330Z,-8.37
2023-02-24T18:34:25.920Z,-8.36
2023-02-24T18:36:54.670Z,-8.37
2023-02-24T18:39:23.649Z,-8.36
2023-02-24T18:41:52.573Z,-8.37
2023-02-24T18:44:21.312Z,-8.31
2023-02-24T18:46:50.260Z,-8.32
2023-02-24T18:49:19.128Z,-8.29
2023-02-24T18:51:49.361Z,-8.32
2023-02-24T18:54:18.234Z,-8.28
2023-02-24T18:56:47.462Z,-8.32
2023-02-24T18:59:16.248Z,-8.23
2023-02-24T19:01:45.740Z,-8.18
2023-02-24T19:04:16.743Z,-8.18
2023-02-24T19:06:49.576Z,-8.22
2023-02-24T19:09:22.105Z,-8.21
2023-02-24T19:11:52.763Z,-8.20
2023-02-24T19:14:21.617Z,-8.21
2023-02-24T19:16:50.523Z,-8.20
2023-02-24T19:19:19.715Z,-8.17
2023-02-24T19:21:50.076Z,-8.24
2023-02-24T19:24:18.894Z,-8.23
2023-02-24T19:26:48.181Z,-8.21
2023-02-24T19:29:17.813Z,-8.26
2023-02-24T19:31:47.073Z,-8.22
2023-02-24T19:34:16.019Z,-8.19
2023-02-24T19:36:44.881Z,-8.18
2023-02-24T19:39:15.859Z,-8.18
2023-02-24T19:41:45.138Z,-8.15
2023-02-24T19:44:13.960Z,-8.20
2023-02-24T19:46:43.648Z,-8.18
2023-02-24T19:49:12.465Z,-8.19
2023-02-24T19:51:41.301Z,-8.12
2023-02-24T19:54:14.441Z,-8.12
2023-02-24T19:56:44.533Z,-8.14
2023-02-24T19:59:14.149Z,-8.16
2023-02-24T20:01:44.466Z,-8.16
2023-02-24T20:04:13.578Z,-8.24
2023-02-24T20:06:44.080Z,-8.34
2023-02-24T20:09:18.464Z,-8.35
2023-02-24T20:11:48.382Z,-8.43
2023-02-24T20:14:18.860Z,-8.41
2023-02-24T20:16:48.395Z,-8.46
2023-02-24T20:19:18.669Z,-8.50
2023-02-24T20:21:48.374Z,-8.51
2023-02-24T20:24:18.609Z,-8.54
2023-02-24T20:26:50.088Z,-8.58
2023-02-24T20:29:21.545Z,-8.60
2023-02-24T20:31:50.882Z,-8.63
2023-02-24T20:34:19.878Z,-8.65
2023-02-24T20:36:48.894Z,-8.75
2023-02-24T20:39:17.964Z,-8.74
2023-02-24T20:41:47.085Z,-8.78
2023-02-24T20:44:15.912Z,-8.86
2023-02-24T20:46:44.806Z,-8.90
2023-02-24T20:49:18.313Z,-8.92
2023-02-24T20:51:47.225Z,-8.91
2023-02-24T20:54:16.570Z,-8.95
2023-02-24T20:56:46.653Z,-8.93
2023-02-24T20:59:18.324Z,-8.96
2023-02-24T21:01:49.523Z,-8.96
2023-02-24T21:04:22.629Z,-8.97
2023-02-24T21:06:54.868Z,-9.01
2023-02-24T21:09:23.750Z,-8.97
2023-02-24T21:11:52.564Z,-8.98
2023-02-24T21:14:22.911Z,-8.99
2023-02-24T21:16:51.713Z,-9.01
2023-02-24T21:19:20.792Z,-9.04
2023-02-24T21:21:49.645Z,-9.05
2023-02-24T21:24:18.799Z,-9.05
2023-02-24T21:26:48.010Z,-9.07
2023-02-24T21:29:17.234Z,-9.05
2023-02-24T21:31:46.334Z,-9.08
2023-02-24T21:34:17.294Z,-9.10
2023-02-24T21:36:46.358Z,-9.11
2023-02-24T21:39:15.277Z,-9.11
2023-02-24T21:41:45.030Z,-9.12
2023-02-24T21:44:18.025Z,-9.11
2023-02-24T21:46:47.051Z,-9.10
2023-02-24T21:49:16.389Z,-9.07
2023-02-24T21:51:49.607Z,-9.08
2023-02-24T21:54:18.641Z,-9.02
2023-02-24T21:56:47.385Z,-8.99
2023-02-24T21:59:16.256Z,-8.97
2023-02-24T22:01:46.525Z,-8.98
2023-02-24T22:04:19.543Z,-8.95
2023-02-24T22:06:48.470Z,-8.90
2023-02-24T22:09:20.841Z,-8.91
2023-02-24T22:11:50.552Z,-8.93
2023-02-24T22:14:19.487Z,-8.98
2023-02-24T22:16:48.366Z,-9.02
2023-02-24T22:19:20.156Z,-9.08
2023-02-24T22:21:48.982Z,-9.03
2023-02-24T22:24:19.033Z,-9.03
2023-02-24T22:26:47.911Z,-8.93
2023-02-24T22:29:16.848Z,-8.93
2023-02-24T22:31:49.055Z,-8.92
2023-02-24T22:34:18.796Z,-8.97
2023-02-24T22:36:47.614Z,-8.89
2023-02-24T22:39:17.574Z,-8.94
2023-02-24T22:41:48.335Z,-8.92
2023-02-24T22:44:19.748Z,-8.98
2023-02-24T22:46:48.919Z,-8.95
2023-02-24T22:49:18.044Z,-8.98
2023-02-24T22:51:46.938Z,-9.01
2023-02-24T22:54:15.824Z,-8.99
2023-02-24T22:56:44.670Z,-8.99
2023-02-24T22:59:14.299Z,-9.03
2023-02-24T23:01:43.762Z,-9.06
2023-02-24T23:04:18.883Z,-9.01
2023-02-24T23:06:48.254Z,-9.02
2023-02-24T23:09:20.478Z,-8.99
2023-02-24T23:11:49.638Z,-8.96
2023-02-24T23:14:18.770Z,-8.94
2023-02-24T23:16:54.179Z,-8.94
2023-02-24T23:19:23.977Z,-8.92
2023-02-24T23:21:54.487Z,-8.93
2023-02-24T23:24:24.807Z,-8.95
2023-02-24T23:26:55.244Z,-8.95
2023-02-24T23:29:25.684Z,-9.03
2023-02-24T23:31:54.885Z,-8.99
2023-02-24T23:34:24.660Z,-9.04
2023-02-24T23:36:53.790Z,-9.03
2023-02-24T23:39:24.263Z,-9.04
2023-02-24T23:41:57.138Z,-9.11
2023-02-24T23:44:26.472Z,-9.07
2023-02-24T23:46:58.700Z,-9.09
2023-02-24T23:49:39.120Z,-9.15
2023-02-24T23:52:14.169Z,-9.16
2023-02-24T23:54:42.994Z,-9.20
2023-02-24T23:57:12.094Z,-9.23
2023-02-24T23:59:40.932Z,-9.26
